sensor_id;sensor_type;location;lat;lon;timestamp;temperature;humidity
79030;DHT22;68511;51.146;7.012;2023-09-08T00:00:39;19.60;64.90
79030;DHT22;68511;51.146;7.012;2023-09-08T00:01:39;19.60;64.90
79030;DHT22;68511;51.146;7.012;2023-09-08T00:02:40;19.60;64.90
79030;DHT22;68511;51.146;7.012;2023-09-08T00:03:40;19.60;64.80
79030;DHT22;68511;51.146;7.012;2023-09-08T00:04:41;19.60;64.80
79030;DHT22;68511;51.146;7.012;2023-09-08T00:05:41;19.60;64.80
79030;DHT22;68511;51.146;7.012;2023-09-08T00:06:42;19.60;64.80
79030;DHT22;68511;51.146;7.012;2023-09-08T00:07:42;19.60;64.80
79030;DHT22;68511;51.146;7.012;2023-09-08T00:08:43;19.60;64.90
79030;DHT22;68511;51.146;7.012;2023-09-08T00:09:43;19.60;64.80
79030;DHT22;68511;51.146;7.012;2023-09-08T00:10:44;19.60;64.80
79030;DHT22;68511;51.146;7.012;2023-09-08T00:11:44;19.60;64.80
79030;DHT22;68511;51.146;7.012;2023-09-08T00:12:45;19.60;64.80
79030;DHT22;68511;51.146;7.012;2023-09-08T00:13:45;19.60;64.80
79030;DHT22;68511;51.146;7.012;2023-09-08T00:14:46;19.60;64.80
79030;DHT22;68511;51.146;7.012;2023-09-08T00:15:46;19.60;64.80
79030;DHT22;68511;51.146;7.012;2023-09-08T00:16:47;19.60;64.80
79030;DHT22;68511;51.146;7.012;2023-09-08T00:17:48;19.60;64.80
79030;DHT22;68511;51.146;7.012;2023-09-08T00:18:49;19.60;64.80
79030;DHT22;68511;51.146;7.012;2023-09-08T00:19:50;19.60;64.80
79030;DHT22;68511;51.146;7.012;2023-09-08T00:20:51;19.60;64.80
79030;DHT22;68511;51.146;7.012;2023-09-08T00:21:51;19.60;64.80
79030;DHT22;68511;51.146;7.012;2023-09-08T00:22:51;19.60;64.80
79030;DHT22;68511;51.146;7.012;2023-09-08T00:23:52;19.60;64.80
79030;DHT22;68511;51.146;7.012;2023-09-08T00:24:53;19.60;64.80
79030;DHT22;68511;51.146;7.012;2023-09-08T00:25:53;19.60;64.80
79030;DHT22;68511;51.146;7.012;2023-09-08T00:26:54;19.60;64.80
79030;DHT22;68511;51.146;7.012;2023-09-08T00:27:54;19.60;64.80
79030;DHT22;68511;51.146;7.012;2023-09-08T00:28:55;19.60;64.80
79030;DHT22;68511;51.146;7.012;2023-09-08T00:29:56;19.60;64.80
79030;DHT22;68511;51.146;7.012;2023-09-08T00:30:57;19.60;64.80
79030;DHT22;68511;51.146;7.012;2023-09-08T00:31:59;19.60;64.90
79030;DHT22;68511;51.146;7.012;2023-09-08T00:33:00;19.60;64.80
79030;DHT22;68511;51.146;7.012;2023-09-08T00:34:00;19.60;64.80
79030;DHT22;68511;51.146;7.012;2023-09-08T00:35:01;19.60;64.80
79030;DHT22;68511;51.146;7.012;2023-09-08T00:36:01;19.60;64.90
79030;DHT22;68511;51.146;7.012;2023-09-08T00:37:02;19.60;64.90
79030;DHT22;68511;51.146;7.012;2023-09-08T00:38:07;19.60;64.90
79030;DHT22;68511;51.146;7.012;2023-09-08T00:39:07;19.60;64.80
79030;DHT22;68511;51.146;7.012;2023-09-08T00:40:08;19.60;64.80
79030;DHT22;68511;51.146;7.012;2023-09-08T00:41:09;19.60;64.80
79030;DHT22;68511;51.146;7.012;2023-09-08T00:42:09;19.60;64.80
79030;DHT22;68511;51.146;7.012;2023-09-08T00:43:09;19.60;64.80
79030;DHT22;68511;51.146;7.012;2023-09-08T00:44:10;19.60;64.80
79030;DHT22;68511;51.146;7.012;2023-09-08T00:45:11;19.60;64.80
79030;DHT22;68511;51.146;7.012;2023-09-08T00:46:12;19.60;64.80
79030;DHT22;68511;51.146;7.012;2023-09-08T00:47:12;19.60;64.80
79030;DHT22;68511;51.146;7.012;2023-09-08T00:48:13;19.60;64.80
79030;DHT22;68511;51.146;7.012;2023-09-08T00:49:13;19.60;64.80
79030;DHT22;68511;51.146;7.012;2023-09-08T00:50:14;19.60;64.80
79030;DHT22;68511;51.146;7.012;2023-09-08T00:51:15;19.60;64.70
79030;DHT22;68511;51.146;7.012;2023-09-08T00:52:15;19.60;64.70
79030;DHT22;68511;51.146;7.012;2023-09-08T00:53:16;19.60;64.70
79030;DHT22;68511;51.146;7.012;2023-09-08T00:54:18;19.60;64.70
79030;DHT22;68511;51.146;7.012;2023-09-08T00:55:18;19.60;64.70
79030;DHT22;68511;51.146;7.012;2023-09-08T00:56:19;19.60;64.70
79030;DHT22;68511;51.146;7.012;2023-09-08T00:57:20;19.60;64.70
79030;DHT22;68511;51.146;7.012;2023-09-08T00:58:21;19.60;64.70
79030;DHT22;68511;51.146;7.012;2023-09-08T00:59:21;19.60;64.70
79030;DHT22;68511;51.146;7.012;2023-09-08T01:00:22;19.60;64.70
79030;DHT22;68511;51.146;7.012;2023-09-08T01:01:23;19.60;64.70
79030;DHT22;68511;51.146;7.012;2023-09-08T01:02:23;19.60;64.70
79030;DHT22;68511;51.146;7.012;2023-09-08T01:03:24;19.60;64.70
79030;DHT22;68511;51.146;7.012;2023-09-08T01:04:24;19.60;64.70
79030;DHT22;68511;51.146;7.012;2023-09-08T01:05:25;19.60;64.70
79030;DHT22;68511;51.146;7.012;2023-09-08T01:06:25;19.60;64.70
79030;DHT22;68511;51.146;7.012;2023-09-08T01:07:26;19.60;64.70
79030;DHT22;68511;51.146;7.012;2023-09-08T01:08:29;19.60;64.70
79030;DHT22;68511;51.146;7.012;2023-09-08T01:09:29;19.60;64.70
79030;DHT22;68511;51.146;7.012;2023-09-08T01:10:30;19.60;64.70
79030;DHT22;68511;51.146;7.012;2023-09-08T01:11:30;19.60;64.70
79030;DHT22;68511;51.146;7.012;2023-09-08T01:12:31;19.60;64.70
79030;DHT22;68511;51.146;7.012;2023-09-08T01:13:32;19.60;64.70
79030;DHT22;68511;51.146;7.012;2023-09-08T01:14:32;19.60;64.70
79030;DHT22;68511;51.146;7.012;2023-09-08T01:15:33;19.60;64.70
79030;DHT22;68511;51.146;7.012;2023-09-08T01:16:33;19.60;64.70
79030;DHT22;68511;51.146;7.012;2023-09-08T01:17:34;19.60;65.40
79030;DHT22;68511;51.146;7.012;2023-09-08T01:18:34;19.60;64.70
79030;DHT22;68511;51.146;7.012;2023-09-08T01:19:35;19.60;64.70
79030;DHT22;68511;51.146;7.012;2023-09-08T01:25:26;19.60;64.70
79030;DHT22;68511;51.146;7.012;2023-09-08T01:26:32;19.60;64.70
79030;DHT22;68511;51.146;7.012;2023-09-08T01:27:37;19.60;64.70
79030;DHT22;68511;51.146;7.012;2023-09-08T01:28:39;19.60;64.70
79030;DHT22;68511;51.146;7.012;2023-09-08T01:29:41;19.60;64.70
79030;DHT22;68511;51.146;7.012;2023-09-08T01:30:41;19.60;64.70
79030;DHT22;68511;51.146;7.012;2023-09-08T01:31:42;19.60;64.70
79030;DHT22;68511;51.146;7.012;2023-09-08T01:32:43;19.60;64.70
79030;DHT22;68511;51.146;7.012;2023-09-08T01:33:44;19.60;64.70
79030;DHT22;68511;51.146;7.012;2023-09-08T01:34:45;19.60;64.70
79030;DHT22;68511;51.146;7.012;2023-09-08T01:35:46;19.60;64.60
79030;DHT22;68511;51.146;7.012;2023-09-08T01:36:46;19.60;64.60
79030;DHT22;68511;51.146;7.012;2023-09-08T01:37:48;19.60;64.70
79030;DHT22;68511;51.146;7.012;2023-09-08T01:38:49;19.60;64.70
79030;DHT22;68511;51.146;7.012;2023-09-08T01:39:49;19.60;64.60
79030;DHT22;68511;51.146;7.012;2023-09-08T01:40:49;19.70;64.70
79030;DHT22;68511;51.146;7.012;2023-09-08T01:41:50;19.60;64.60
79030;DHT22;68511;51.146;7.012;2023-09-08T01:42:51;19.60;64.60
79030;DHT22;68511;51.146;7.012;2023-09-08T01:43:51;19.60;64.60
79030;DHT22;68511;51.146;7.012;2023-09-08T01:44:52;19.60;64.70
79030;DHT22;68511;51.146;7.012;2023-09-08T01:45:52;19.60;64.60
79030;DHT22;68511;51.146;7.012;2023-09-08T01:46:53;19.60;64.60
79030;DHT22;68511;51.146;7.012;2023-09-08T01:47:57;19.60;64.60
79030;DHT22;68511;51.146;7.012;2023-09-08T01:48:57;19.60;64.60
79030;DHT22;68511;51.146;7.012;2023-09-08T01:49:57;19.60;64.60
79030;DHT22;68511;51.146;7.012;2023-09-08T01:50:58;19.60;64.60
79030;DHT22;68511;51.146;7.012;2023-09-08T01:51:58;19.60;64.60
79030;DHT22;68511;51.146;7.012;2023-09-08T01:52:59;19.60;64.60
79030;DHT22;68511;51.146;7.012;2023-09-08T01:53:59;19.60;64.60
79030;DHT22;68511;51.146;7.012;2023-09-08T01:55:00;19.60;64.60
79030;DHT22;68511;51.146;7.012;2023-09-08T01:56:00;19.60;64.60
79030;DHT22;68511;51.146;7.012;2023-09-08T01:57:01;19.60;64.60
79030;DHT22;68511;51.146;7.012;2023-09-08T01:58:01;19.60;64.60
79030;DHT22;68511;51.146;7.012;2023-09-08T01:59:02;19.60;64.60
79030;DHT22;68511;51.146;7.012;2023-09-08T02:00:02;19.60;64.50
79030;DHT22;68511;51.146;7.012;2023-09-08T02:01:03;19.60;65.30
79030;DHT22;68511;51.146;7.012;2023-09-08T02:02:05;19.60;64.50
79030;DHT22;68511;51.146;7.012;2023-09-08T02:03:06;19.60;64.60
79030;DHT22;68511;51.146;7.012;2023-09-08T02:04:07;19.60;64.60
79030;DHT22;68511;51.146;7.012;2023-09-08T02:05:07;19.60;64.50
79030;DHT22;68511;51.146;7.012;2023-09-08T02:06:08;19.60;64.50
79030;DHT22;68511;51.146;7.012;2023-09-08T02:07:09;19.60;64.50
79030;DHT22;68511;51.146;7.012;2023-09-08T02:08:09;19.60;64.50
79030;DHT22;68511;51.146;7.012;2023-09-08T02:09:11;19.60;64.50
79030;DHT22;68511;51.146;7.012;2023-09-08T02:10:12;19.60;64.50
79030;DHT22;68511;51.146;7.012;2023-09-08T02:11:12;19.60;64.50
79030;DHT22;68511;51.146;7.012;2023-09-08T02:12:13;19.60;64.50
79030;DHT22;68511;51.146;7.012;2023-09-08T02:13:13;19.60;64.50
79030;DHT22;68511;51.146;7.012;2023-09-08T02:14:14;19.60;64.40
79030;DHT22;68511;51.146;7.012;2023-09-08T02:15:14;19.60;64.50
79030;DHT22;68511;51.146;7.012;2023-09-08T02:16:16;19.60;64.50
79030;DHT22;68511;51.146;7.012;2023-09-08T02:17:16;19.60;64.50
79030;DHT22;68511;51.146;7.012;2023-09-08T02:18:17;19.60;64.40
79030;DHT22;68511;51.146;7.012;2023-09-08T02:19:17;19.60;64.40
79030;DHT22;68511;51.146;7.012;2023-09-08T02:20:18;19.60;64.40
79030;DHT22;68511;51.146;7.012;2023-09-08T02:21:18;19.60;64.30
79030;DHT22;68511;51.146;7.012;2023-09-08T02:22:18;19.60;64.30
79030;DHT22;68511;51.146;7.012;2023-09-08T02:23:19;19.60;64.40
79030;DHT22;68511;51.146;7.012;2023-09-08T02:24:19;19.60;64.40
79030;DHT22;68511;51.146;7.012;2023-09-08T02:25:20;19.60;64.40
79030;DHT22;68511;51.146;7.012;2023-09-08T02:26:20;19.60;64.40
79030;DHT22;68511;51.146;7.012;2023-09-08T02:27:21;19.60;64.40
79030;DHT22;68511;51.146;7.012;2023-09-08T02:28:21;19.60;65.10
79030;DHT22;68511;51.146;7.012;2023-09-08T02:29:22;19.60;64.40
79030;DHT22;68511;51.146;7.012;2023-09-08T02:30:23;19.60;64.40
79030;DHT22;68511;51.146;7.012;2023-09-08T02:31:23;19.60;64.40
79030;DHT22;68511;51.146;7.012;2023-09-08T02:32:23;19.60;64.40
79030;DHT22;68511;51.146;7.012;2023-09-08T02:33:24;19.60;64.40
79030;DHT22;68511;51.146;7.012;2023-09-08T02:34:24;19.60;64.40
79030;DHT22;68511;51.146;7.012;2023-09-08T02:35:25;19.60;64.50
79030;DHT22;68511;51.146;7.012;2023-09-08T02:36:26;19.60;64.60
79030;DHT22;68511;51.146;7.012;2023-09-08T02:37:26;19.60;64.50
79030;DHT22;68511;51.146;7.012;2023-09-08T02:38:27;19.60;64.50
79030;DHT22;68511;51.146;7.012;2023-09-08T02:39:27;19.60;64.50
79030;DHT22;68511;51.146;7.012;2023-09-08T02:40:28;19.60;64.50
79030;DHT22;68511;51.146;7.012;2023-09-08T02:41:29;19.60;64.50
79030;DHT22;68511;51.146;7.012;2023-09-08T02:42:29;19.60;64.50
79030;DHT22;68511;51.146;7.012;2023-09-08T02:43:29;19.60;64.50
79030;DHT22;68511;51.146;7.012;2023-09-08T02:44:31;19.60;64.50
79030;DHT22;68511;51.146;7.012;2023-09-08T02:45:32;19.60;64.50
79030;DHT22;68511;51.146;7.012;2023-09-08T02:46:32;19.60;64.50
79030;DHT22;68511;51.146;7.012;2023-09-08T02:47:33;19.60;64.50
79030;DHT22;68511;51.146;7.012;2023-09-08T02:48:33;19.60;64.50
79030;DHT22;68511;51.146;7.012;2023-09-08T02:49:33;19.60;64.50
79030;DHT22;68511;51.146;7.012;2023-09-08T02:50:34;19.60;64.50
79030;DHT22;68511;51.146;7.012;2023-09-08T02:51:34;19.70;64.60
79030;DHT22;68511;51.146;7.012;2023-09-08T02:52:35;19.60;64.50
79030;DHT22;68511;51.146;7.012;2023-09-08T02:53:35;19.60;64.50
79030;DHT22;68511;51.146;7.012;2023-09-08T02:54:35;19.60;64.40
79030;DHT22;68511;51.146;7.012;2023-09-08T02:55:36;19.60;64.50
79030;DHT22;68511;51.146;7.012;2023-09-08T02:56:36;19.60;64.40
79030;DHT22;68511;51.146;7.012;2023-09-08T02:57:38;19.60;64.40
79030;DHT22;68511;51.146;7.012;2023-09-08T02:58:38;19.60;64.40
79030;DHT22;68511;51.146;7.012;2023-09-08T02:59:39;19.60;65.10
79030;DHT22;68511;51.146;7.012;2023-09-08T03:00:39;19.60;64.30
79030;DHT22;68511;51.146;7.012;2023-09-08T03:01:39;19.60;64.30
79030;DHT22;68511;51.146;7.012;2023-09-08T03:02:40;19.60;64.40
79030;DHT22;68511;51.146;7.012;2023-09-08T03:03:41;19.60;64.40
79030;DHT22;68511;51.146;7.012;2023-09-08T03:04:41;19.60;64.40
79030;DHT22;68511;51.146;7.012;2023-09-08T03:05:42;19.60;64.40
79030;DHT22;68511;51.146;7.012;2023-09-08T03:06:42;19.60;64.40
79030;DHT22;68511;51.146;7.012;2023-09-08T03:07:43;19.60;64.40
79030;DHT22;68511;51.146;7.012;2023-09-08T03:08:43;19.60;64.40
79030;DHT22;68511;51.146;7.012;2023-09-08T03:09:44;19.60;64.40
79030;DHT22;68511;51.146;7.012;2023-09-08T03:10:44;19.60;64.40
79030;DHT22;68511;51.146;7.012;2023-09-08T03:11:45;19.60;64.40
79030;DHT22;68511;51.146;7.012;2023-09-08T03:12:45;19.60;64.50
79030;DHT22;68511;51.146;7.012;2023-09-08T03:13:46;19.60;64.50
79030;DHT22;68511;51.146;7.012;2023-09-08T03:14:46;19.60;64.50
79030;DHT22;68511;51.146;7.012;2023-09-08T03:15:46;19.60;64.50
79030;DHT22;68511;51.146;7.012;2023-09-08T03:16:47;19.60;64.60
79030;DHT22;68511;51.146;7.012;2023-09-08T03:17:47;19.60;64.60
79030;DHT22;68511;51.146;7.012;2023-09-08T03:18:48;19.60;64.50
79030;DHT22;68511;51.146;7.012;2023-09-08T03:19:48;19.60;64.60
79030;DHT22;68511;51.146;7.012;2023-09-08T03:20:49;19.60;64.50
79030;DHT22;68511;51.146;7.012;2023-09-08T03:21:50;19.60;64.50
79030;DHT22;68511;51.146;7.012;2023-09-08T03:22:50;19.60;64.60
79030;DHT22;68511;51.146;7.012;2023-09-08T03:23:50;19.60;64.50
79030;DHT22;68511;51.146;7.012;2023-09-08T03:24:51;19.60;64.60
79030;DHT22;68511;51.146;7.012;2023-09-08T03:25:52;19.60;64.60
79030;DHT22;68511;51.146;7.012;2023-09-08T03:26:53;19.60;64.60
79030;DHT22;68511;51.146;7.012;2023-09-08T03:27:53;19.60;64.60
79030;DHT22;68511;51.146;7.012;2023-09-08T03:28:53;19.60;64.60
79030;DHT22;68511;51.146;7.012;2023-09-08T03:29:54;19.60;64.60
79030;DHT22;68511;51.146;7.012;2023-09-08T03:30:54;19.60;64.60
79030;DHT22;68511;51.146;7.012;2023-09-08T03:31:55;19.60;64.50
79030;DHT22;68511;51.146;7.012;2023-09-08T03:32:55;19.60;64.50
79030;DHT22;68511;51.146;7.012;2023-09-08T03:33:56;19.60;64.50
79030;DHT22;68511;51.146;7.012;2023-09-08T03:34:56;19.60;64.40
79030;DHT22;68511;51.146;7.012;2023-09-08T03:35:57;19.60;64.50
79030;DHT22;68511;51.146;7.012;2023-09-08T03:36:57;19.60;64.40
79030;DHT22;68511;51.146;7.012;2023-09-08T03:37:57;19.60;64.50
79030;DHT22;68511;51.146;7.012;2023-09-08T03:38:58;19.60;64.40
79030;DHT22;68511;51.146;7.012;2023-09-08T03:39:59;19.60;64.40
79030;DHT22;68511;51.146;7.012;2023-09-08T03:40:59;19.60;64.40
79030;DHT22;68511;51.146;7.012;2023-09-08T03:42:01;19.60;64.30
79030;DHT22;68511;51.146;7.012;2023-09-08T03:43:01;19.60;64.30
79030;DHT22;68511;51.146;7.012;2023-09-08T03:44:02;19.60;64.30
79030;DHT22;68511;51.146;7.012;2023-09-08T03:45:02;19.60;64.30
79030;DHT22;68511;51.146;7.012;2023-09-08T03:46:03;19.60;64.30
79030;DHT22;68511;51.146;7.012;2023-09-08T03:47:03;19.60;64.20
79030;DHT22;68511;51.146;7.012;2023-09-08T03:48:04;19.60;64.20
79030;DHT22;68511;51.146;7.012;2023-09-08T03:49:04;19.60;64.10
79030;DHT22;68511;51.146;7.012;2023-09-08T03:50:05;19.60;64.20
79030;DHT22;68511;51.146;7.012;2023-09-08T03:51:06;19.60;64.10
79030;DHT22;68511;51.146;7.012;2023-09-08T03:52:06;19.60;64.10
79030;DHT22;68511;51.146;7.012;2023-09-08T03:53:07;19.60;64.10
79030;DHT22;68511;51.146;7.012;2023-09-08T03:54:07;19.60;64.10
79030;DHT22;68511;51.146;7.012;2023-09-08T03:55:08;19.60;64.10
79030;DHT22;68511;51.146;7.012;2023-09-08T03:56:08;19.60;64.10
79030;DHT22;68511;51.146;7.012;2023-09-08T03:57:09;19.60;64.10
79030;DHT22;68511;51.146;7.012;2023-09-08T03:58:09;19.60;64.10
79030;DHT22;68511;51.146;7.012;2023-09-08T03:59:10;19.60;64.10
79030;DHT22;68511;51.146;7.012;2023-09-08T04:00:10;19.60;64.10
79030;DHT22;68511;51.146;7.012;2023-09-08T04:01:11;19.60;64.10
79030;DHT22;68511;51.146;7.012;2023-09-08T04:02:11;19.60;64.10
79030;DHT22;68511;51.146;7.012;2023-09-08T04:03:12;19.60;64.00
79030;DHT22;68511;51.146;7.012;2023-09-08T04:04:12;19.60;64.00
79030;DHT22;68511;51.146;7.012;2023-09-08T04:05:13;19.60;64.00
79030;DHT22;68511;51.146;7.012;2023-09-08T04:06:13;19.60;64.00
79030;DHT22;68511;51.146;7.012;2023-09-08T04:07:14;19.60;63.90
79030;DHT22;68511;51.146;7.012;2023-09-08T04:08:14;19.60;63.90
79030;DHT22;68511;51.146;7.012;2023-09-08T04:09:14;19.60;64.00
79030;DHT22;68511;51.146;7.012;2023-09-08T04:10:15;19.60;63.90
79030;DHT22;68511;51.146;7.012;2023-09-08T04:11:15;19.60;63.90
79030;DHT22;68511;51.146;7.012;2023-09-08T04:12:16;19.60;63.80
79030;DHT22;68511;51.146;7.012;2023-09-08T04:13:16;19.60;63.80
79030;DHT22;68511;51.146;7.012;2023-09-08T04:14:17;19.60;63.90
79030;DHT22;68511;51.146;7.012;2023-09-08T04:15:17;19.60;63.80
79030;DHT22;68511;51.146;7.012;2023-09-08T04:16:18;19.60;63.80
79030;DHT22;68511;51.146;7.012;2023-09-08T04:17:18;19.60;63.80
79030;DHT22;68511;51.146;7.012;2023-09-08T04:18:19;19.60;63.80
79030;DHT22;68511;51.146;7.012;2023-09-08T04:19:19;19.60;63.80
79030;DHT22;68511;51.146;7.012;2023-09-08T04:20:20;19.60;64.50
79030;DHT22;68511;51.146;7.012;2023-09-08T04:21:20;19.60;63.80
79030;DHT22;68511;51.146;7.012;2023-09-08T04:22:21;19.60;63.80
79030;DHT22;68511;51.146;7.012;2023-09-08T04:23:21;19.60;63.80
79030;DHT22;68511;51.146;7.012;2023-09-08T04:24:21;19.60;63.70
79030;DHT22;68511;51.146;7.012;2023-09-08T04:25:22;19.60;63.70
79030;DHT22;68511;51.146;7.012;2023-09-08T04:26:22;19.60;63.60
79030;DHT22;68511;51.146;7.012;2023-09-08T04:27:23;19.60;63.60
79030;DHT22;68511;51.146;7.012;2023-09-08T04:28:23;19.60;63.50
79030;DHT22;68511;51.146;7.012;2023-09-08T04:29:24;19.60;63.50
79030;DHT22;68511;51.146;7.012;2023-09-08T04:30:24;19.60;63.50
79030;DHT22;68511;51.146;7.012;2023-09-08T04:31:25;19.60;63.50
79030;DHT22;68511;51.146;7.012;2023-09-08T04:32:25;19.60;63.60
79030;DHT22;68511;51.146;7.012;2023-09-08T04:33:26;19.60;63.50
79030;DHT22;68511;51.146;7.012;2023-09-08T04:34:29;19.60;63.50
79030;DHT22;68511;51.146;7.012;2023-09-08T04:35:29;19.60;63.50
79030;DHT22;68511;51.146;7.012;2023-09-08T04:36:30;19.60;63.60
79030;DHT22;68511;51.146;7.012;2023-09-08T04:37:30;19.60;63.60
79030;DHT22;68511;51.146;7.012;2023-09-08T04:38:31;19.60;63.60
79030;DHT22;68511;51.146;7.012;2023-09-08T04:39:32;19.60;63.60
79030;DHT22;68511;51.146;7.012;2023-09-08T04:40:33;19.60;63.60
79030;DHT22;68511;51.146;7.012;2023-09-08T04:41:33;19.60;63.60
79030;DHT22;68511;51.146;7.012;2023-09-08T04:42:34;19.60;63.60
79030;DHT22;68511;51.146;7.012;2023-09-08T04:43:34;19.60;63.50
79030;DHT22;68511;51.146;7.012;2023-09-08T04:44:35;19.60;63.50
79030;DHT22;68511;51.146;7.012;2023-09-08T04:45:35;19.60;63.50
79030;DHT22;68511;51.146;7.012;2023-09-08T04:46:35;19.60;63.50
79030;DHT22;68511;51.146;7.012;2023-09-08T04:47:36;19.60;64.20
79030;DHT22;68511;51.146;7.012;2023-09-08T04:48:37;19.60;63.50
79030;DHT22;68511;51.146;7.012;2023-09-08T04:49:38;19.60;63.50
79030;DHT22;68511;51.146;7.012;2023-09-08T04:50:38;19.60;63.40
79030;DHT22;68511;51.146;7.012;2023-09-08T04:51:39;19.60;63.50
79030;DHT22;68511;51.146;7.012;2023-09-08T04:52:39;19.60;63.50
79030;DHT22;68511;51.146;7.012;2023-09-08T04:53:39;19.60;63.40
79030;DHT22;68511;51.146;7.012;2023-09-08T04:54:40;19.60;63.30
79030;DHT22;68511;51.146;7.012;2023-09-08T04:55:40;19.60;63.30
79030;DHT22;68511;51.146;7.012;2023-09-08T04:56:41;19.60;63.40
79030;DHT22;68511;51.146;7.012;2023-09-08T04:57:42;19.60;63.40
79030;DHT22;68511;51.146;7.012;2023-09-08T04:58:42;19.60;63.40
79030;DHT22;68511;51.146;7.012;2023-09-08T04:59:42;19.60;63.40
79030;DHT22;68511;51.146;7.012;2023-09-08T05:00:43;19.60;63.40
79030;DHT22;68511;51.146;7.012;2023-09-08T05:01:43;19.60;63.40
79030;DHT22;68511;51.146;7.012;2023-09-08T05:02:44;19.60;63.40
79030;DHT22;68511;51.146;7.012;2023-09-08T05:03:45;19.60;63.40
79030;DHT22;68511;51.146;7.012;2023-09-08T05:04:45;19.60;64.20
79030;DHT22;68511;51.146;7.012;2023-09-08T05:05:46;19.60;63.40
79030;DHT22;68511;51.146;7.012;2023-09-08T05:06:46;19.60;63.40
79030;DHT22;68511;51.146;7.012;2023-09-08T05:07:47;19.60;63.40
79030;DHT22;68511;51.146;7.012;2023-09-08T05:08:48;19.60;63.40
79030;DHT22;68511;51.146;7.012;2023-09-08T05:09:49;19.60;63.30
79030;DHT22;68511;51.146;7.012;2023-09-08T05:10:50;19.60;63.30
79030;DHT22;68511;51.146;7.012;2023-09-08T05:11:50;19.60;63.30
79030;DHT22;68511;51.146;7.012;2023-09-08T05:12:51;19.60;63.30
79030;DHT22;68511;51.146;7.012;2023-09-08T05:13:52;19.60;63.30
79030;DHT22;68511;51.146;7.012;2023-09-08T05:14:52;19.60;63.40
79030;DHT22;68511;51.146;7.012;2023-09-08T05:15:56;19.60;63.30
79030;DHT22;68511;51.146;7.012;2023-09-08T05:17:00;19.60;63.30
79030;DHT22;68511;51.146;7.012;2023-09-08T05:18:00;19.60;63.30
79030;DHT22;68511;51.146;7.012;2023-09-08T05:19:01;19.60;63.30
79030;DHT22;68511;51.146;7.012;2023-09-08T05:20:02;19.60;63.30
79030;DHT22;68511;51.146;7.012;2023-09-08T05:21:02;19.60;63.20
79030;DHT22;68511;51.146;7.012;2023-09-08T05:22:04;19.60;63.30
79030;DHT22;68511;51.146;7.012;2023-09-08T05:23:05;19.60;63.20
79030;DHT22;68511;51.146;7.012;2023-09-08T05:24:05;19.60;63.20
79030;DHT22;68511;51.146;7.012;2023-09-08T05:25:06;19.60;63.10
79030;DHT22;68511;51.146;7.012;2023-09-08T05:26:07;19.60;63.20
79030;DHT22;68511;51.146;7.012;2023-09-08T05:27:07;19.60;63.10
79030;DHT22;68511;51.146;7.012;2023-09-08T05:28:07;19.60;63.10
79030;DHT22;68511;51.146;7.012;2023-09-08T05:29:08;19.60;63.10
79030;DHT22;68511;51.146;7.012;2023-09-08T05:30:08;19.60;63.10
79030;DHT22;68511;51.146;7.012;2023-09-08T05:31:09;19.60;63.10
79030;DHT22;68511;51.146;7.012;2023-09-08T05:32:09;19.60;63.10
79030;DHT22;68511;51.146;7.012;2023-09-08T05:33:10;19.60;63.10
79030;DHT22;68511;51.146;7.012;2023-09-08T05:34:10;19.60;63.10
79030;DHT22;68511;51.146;7.012;2023-09-08T05:35:11;19.60;63.20
79030;DHT22;68511;51.146;7.012;2023-09-08T05:36:11;19.60;63.20
79030;DHT22;68511;51.146;7.012;2023-09-08T05:37:11;19.60;63.10
79030;DHT22;68511;51.146;7.012;2023-09-08T05:38:12;19.60;63.10
79030;DHT22;68511;51.146;7.012;2023-09-08T05:39:14;19.60;63.10
79030;DHT22;68511;51.146;7.012;2023-09-08T05:40:15;19.60;63.10
79030;DHT22;68511;51.146;7.012;2023-09-08T05:41:15;19.60;63.10
79030;DHT22;68511;51.146;7.012;2023-09-08T05:42:16;19.60;63.10
79030;DHT22;68511;51.146;7.012;2023-09-08T05:43:16;19.60;63.10
79030;DHT22;68511;51.146;7.012;2023-09-08T05:44:16;19.60;63.10
79030;DHT22;68511;51.146;7.012;2023-09-08T05:45:17;19.60;63.10
79030;DHT22;68511;51.146;7.012;2023-09-08T05:46:18;19.60;63.10
79030;DHT22;68511;51.146;7.012;2023-09-08T05:47:18;19.60;63.10
79030;DHT22;68511;51.146;7.012;2023-09-08T05:48:19;19.60;63.10
79030;DHT22;68511;51.146;7.012;2023-09-08T05:49:19;19.60;63.10
79030;DHT22;68511;51.146;7.012;2023-09-08T05:50:20;19.60;63.10
79030;DHT22;68511;51.146;7.012;2023-09-08T05:51:21;19.60;63.10
79030;DHT22;68511;51.146;7.012;2023-09-08T05:52:22;19.60;63.10
79030;DHT22;68511;51.146;7.012;2023-09-08T05:53:23;19.60;63.10
79030;DHT22;68511;51.146;7.012;2023-09-08T05:54:24;19.60;63.10
79030;DHT22;68511;51.146;7.012;2023-09-08T05:55:24;19.60;63.20
79030;DHT22;68511;51.146;7.012;2023-09-08T05:56:29;19.60;63.10
79030;DHT22;68511;51.146;7.012;2023-09-08T05:57:29;19.60;63.10
79030;DHT22;68511;51.146;7.012;2023-09-08T05:58:30;19.60;63.20
79030;DHT22;68511;51.146;7.012;2023-09-08T05:59:31;19.60;63.20
79030;DHT22;68511;51.146;7.012;2023-09-08T06:00:31;19.60;63.20
79030;DHT22;68511;51.146;7.012;2023-09-08T06:01:31;19.60;63.20
79030;DHT22;68511;51.146;7.012;2023-09-08T06:02:33;19.60;63.30
79030;DHT22;68511;51.146;7.012;2023-09-08T06:03:33;19.60;63.40
79030;DHT22;68511;51.146;7.012;2023-09-08T06:04:34;19.60;63.40
79030;DHT22;68511;51.146;7.012;2023-09-08T06:05:34;19.60;63.50
79030;DHT22;68511;51.146;7.012;2023-09-08T06:06:35;19.60;63.50
79030;DHT22;68511;51.146;7.012;2023-09-08T06:07:35;19.60;63.50
79030;DHT22;68511;51.146;7.012;2023-09-08T06:08:36;19.60;63.50
79030;DHT22;68511;51.146;7.012;2023-09-08T06:09:36;19.60;63.50
79030;DHT22;68511;51.146;7.012;2023-09-08T06:10:37;19.60;63.60
79030;DHT22;68511;51.146;7.012;2023-09-08T06:11:38;19.60;63.60
79030;DHT22;68511;51.146;7.012;2023-09-08T06:12:38;19.60;63.60
79030;DHT22;68511;51.146;7.012;2023-09-08T06:13:38;19.60;63.70
79030;DHT22;68511;51.146;7.012;2023-09-08T06:14:39;19.60;63.70
79030;DHT22;68511;51.146;7.012;2023-09-08T06:15:39;19.60;63.70
79030;DHT22;68511;51.146;7.012;2023-09-08T06:16:40;19.60;63.70
79030;DHT22;68511;51.146;7.012;2023-09-08T06:17:40;19.60;63.70
79030;DHT22;68511;51.146;7.012;2023-09-08T06:18:41;19.60;63.70
79030;DHT22;68511;51.146;7.012;2023-09-08T06:19:41;19.60;63.70
79030;DHT22;68511;51.146;7.012;2023-09-08T06:20:45;19.60;63.70
79030;DHT22;68511;51.146;7.012;2023-09-08T06:21:46;19.60;63.70
79030;DHT22;68511;51.146;7.012;2023-09-08T06:22:46;19.60;63.70
79030;DHT22;68511;51.146;7.012;2023-09-08T06:23:47;19.60;63.70
79030;DHT22;68511;51.146;7.012;2023-09-08T06:24:47;19.60;63.80
79030;DHT22;68511;51.146;7.012;2023-09-08T06:25:48;19.60;63.80
79030;DHT22;68511;51.146;7.012;2023-09-08T06:26:49;19.60;63.80
79030;DHT22;68511;51.146;7.012;2023-09-08T06:27:49;19.60;63.80